]idnight River — HP7399 — position and weather

sailwx.info

Track history (hours):
 
Tides and Currents Weather Stations Pressure Air Temp Water Temp Dewpoint Dewpoint Depression Visibility Wind Speed Wind Dir Waves Ship Positions

]idnight River

Last reported at 2015-Aug-29 20:13 UTC. Time now 2015-Aug-31 02:32 UTC.
Position N 18°23' W 064°36'.

Type: Ship. MMSI: 352319000.

Date/timePositionNaut miles runAvg speedWind from/ knotsBaromVisibWave heightAir tempDewpointWater temp
2015-Aug-29 20:13N 18°23' W 064°36'2 2.6
2015-Aug-29 19:32N 18°22' W 064°35'0 0.0
2015-Aug-29 18:33N 18°22' W 064°35'0 0.0
2015-Aug-29 17:33N 18°22' W 064°35'0 0.0
2015-Aug-29 16:33N 18°22' W 064°35'1 0.8
2015-Aug-29 15:34N 18°22' W 064°36'1 0.8
2015-Aug-29 14:33N 18°22' W 064°35'3 0.6
2015-Aug-29 09:15N 18°25' W 064°36'7 9.6
2015-Aug-29 08:32N 18°24' W 064°29'6110.1
2015-Aug-29 02:33N 18°10' W 063°27'1010.0
2015-Aug-29 01:33N 18°07' W 063°17'1010.1
2015-Aug-29 00:32N 18°05' W 063°06'1 1.1
2015-Aug-28 23:32N 18°05' W 063°05'0 0.0
2015-Aug-28 22:33N 18°05' W 063°05'0 0.0
2015-Aug-28 21:31N 18°05' W 063°05'0 0.0
2015-Aug-28 20:32N 18°05' W 063°05'0 0.0
2015-Aug-28 19:31N 18°05' W 063°05'0 0.0
2015-Aug-28 18:32N 18°05' W 063°05'0 0.0
2015-Aug-28 17:31N 18°05' W 063°05'0 0.0
2015-Aug-28 16:32N 18°05' W 063°05'0 0.3
2015-Aug-28 15:32N 18°05' W 063°05'0 0.1
2015-Aug-28 14:32N 18°05' W 063°05'0 0.0
2015-Aug-28 13:33N 18°05' W 063°05'0 0.1
2015-Aug-28 12:30N 18°05' W 063°05'0 0.0
2015-Aug-28 11:33N 18°05' W 063°05'0 0.0
2015-Aug-28 10:32N 18°05' W 063°05'0 0.0
2015-Aug-28 09:32N 18°05' W 063°05'5 5.5
2015-Aug-28 08:33N 18°05' W 063°11'7 7.0
2015-Aug-28 07:33N 18°06' W 063°18'7 6.6
2015-Aug-28 06:33N 18°07' W 063°25'62 3.4
2015-Aug-27 12:27N 18°26' W 064°27'1 1.2
2015-Aug-27 11:26N 18°26' W 064°29'6 0.8
2015-Aug-27 04:15N 18°22' W 064°33'2 0.1
2015-Aug-25 21:28N 18°22' W 064°35'0 0.0
2015-Aug-25 20:33N 18°22' W 064°35'0 0.0
2015-Aug-25 19:33N 18°22' W 064°35'0 0.0
2015-Aug-25 18:33N 18°22' W 064°35'0 0.0
2015-Aug-25 17:31N 18°22' W 064°35'0 0.0
2015-Aug-25 16:33N 18°22' W 064°35'0 0.0
2015-Aug-25 15:29N 18°22' W 064°35'3 0.2
2015-Aug-24 22:33N 18°24' W 064°35'7 1.4
2015-Aug-24 17:33N 18°26' W 064°28'  
Track history (hours):
 
Tides and Currents Weather Stations Pressure Air Temp Water Temp Dewpoint Dewpoint Depression Visibility Wind Speed Wind Dir Waves Ship Positions

]idnight River

Last reported at 2015-Aug-29 20:13 UTC. Time now 2015-Aug-31 02:32 UTC.
Position N 18°23' W 064°36'.

Type: Ship. MMSI: 352319000.

Date/timePositionNaut miles runAvg speedWind from/ knotsBaromVisibWave heightAir tempDewpointWater temp
2015-Aug-29 20:13N 18°23' W 064°36'2 2.6
2015-Aug-29 19:32N 18°22' W 064°35'0 0.0
2015-Aug-29 18:33N 18°22' W 064°35'0 0.0
2015-Aug-29 17:33N 18°22' W 064°35'0 0.0
2015-Aug-29 16:33N 18°22' W 064°35'1 0.8
2015-Aug-29 15:34N 18°22' W 064°36'1 0.8
2015-Aug-29 14:33N 18°22' W 064°35'3 0.6
2015-Aug-29 09:15N 18°25' W 064°36'7 9.6
2015-Aug-29 08:32N 18°24' W 064°29'6110.1
2015-Aug-29 02:33N 18°10' W 063°27'1010.0
2015-Aug-29 01:33N 18°07' W 063°17'1010.1
2015-Aug-29 00:32N 18°05' W 063°06'1 1.1
2015-Aug-28 23:32N 18°05' W 063°05'0 0.0
2015-Aug-28 22:33N 18°05' W 063°05'0 0.0
2015-Aug-28 21:31N 18°05' W 063°05'0 0.0
2015-Aug-28 20:32N 18°05' W 063°05'0 0.0
2015-Aug-28 19:31N 18°05' W 063°05'0 0.0
2015-Aug-28 18:32N 18°05' W 063°05'0 0.0
2015-Aug-28 17:31N 18°05' W 063°05'0 0.0
2015-Aug-28 16:32N 18°05' W 063°05'0 0.3
2015-Aug-28 15:32N 18°05' W 063°05'0 0.1
2015-Aug-28 14:32N 18°05' W 063°05'0 0.0
2015-Aug-28 13:33N 18°05' W 063°05'0 0.1
2015-Aug-28 12:30N 18°05' W 063°05'0 0.0
2015-Aug-28 11:33N 18°05' W 063°05'0 0.0
2015-Aug-28 10:32N 18°05' W 063°05'0 0.0
2015-Aug-28 09:32N 18°05' W 063°05'5 5.5
2015-Aug-28 08:33N 18°05' W 063°11'7 7.0
2015-Aug-28 07:33N 18°06' W 063°18'7 6.6
2015-Aug-28 06:33N 18°07' W 063°25'62 3.4
2015-Aug-27 12:27N 18°26' W 064°27'1 1.2
2015-Aug-27 11:26N 18°26' W 064°29'6 0.8
2015-Aug-27 04:15N 18°22' W 064°33'2 0.1
2015-Aug-25 21:28N 18°22' W 064°35'0 0.0
2015-Aug-25 20:33N 18°22' W 064°35'0 0.0
2015-Aug-25 19:33N 18°22' W 064°35'0 0.0
2015-Aug-25 18:33N 18°22' W 064°35'0 0.0
2015-Aug-25 17:31N 18°22' W 064°35'0 0.0
2015-Aug-25 16:33N 18°22' W 064°35'0 0.0
2015-Aug-25 15:29N 18°22' W 064°35'3 0.2
2015-Aug-24 22:33N 18°24' W 064°35'7 1.4
2015-Aug-24 17:33N 18°26' W 064°28'  

Dump ship's entire track history